sensor_id;sensor_type;location;lat;lon;timestamp;P1;durP1;ratioP1;P2;durP2;ratioP2
71753;SDS011;59593;51.716;7.016;2023-02-01T00:02:11;23.20;;;7.90;;
71753;SDS011;59593;51.716;7.016;2023-02-01T00:04:36;21.03;;;6.77;;
71753;SDS011;59593;51.716;7.016;2023-02-01T00:07:02;18.83;;;6.93;;
71753;SDS011;59593;51.716;7.016;2023-02-01T00:09:27;20.57;;;7.03;;
71753;SDS011;59593;51.716;7.016;2023-02-01T00:11:53;22.80;;;7.47;;
71753;SDS011;59593;51.716;7.016;2023-02-01T00:14:18;24.50;;;7.10;;
71753;SDS011;59593;51.716;7.016;2023-02-01T00:16:44;26.53;;;7.20;;
71753;SDS011;59593;51.716;7.016;2023-02-01T00:19:12;26.33;;;6.60;;
71753;SDS011;59593;51.716;7.016;2023-02-01T00:21:39;17.40;;;6.53;;
71753;SDS011;59593;51.716;7.016;2023-02-01T00:24:05;22.73;;;6.60;;
71753;SDS011;59593;51.716;7.016;2023-02-01T00:26:32;26.73;;;6.40;;
71753;SDS011;59593;51.716;7.016;2023-02-01T00:29:00;20.70;;;5.73;;
71753;SDS011;59593;51.716;7.016;2023-02-01T00:31:26;17.83;;;5.70;;
71753;SDS011;59593;51.716;7.016;2023-02-01T00:33:52;21.00;;;5.40;;
71753;SDS011;59593;51.716;7.016;2023-02-01T00:36:17;16.40;;;5.30;;
71753;SDS011;59593;51.716;7.016;2023-02-01T00:38:43;19.00;;;4.77;;
71753;SDS011;59593;51.716;7.016;2023-02-01T00:41:14;20.47;;;5.10;;
71753;SDS011;59593;51.716;7.016;2023-02-01T00:43:42;18.07;;;5.27;;
71753;SDS011;59593;51.716;7.016;2023-02-01T00:46:09;18.43;;;4.83;;
71753;SDS011;59593;51.716;7.016;2023-02-01T00:48:35;20.30;;;4.87;;
71753;SDS011;59593;51.716;7.016;2023-02-01T00:51:05;22.77;;;4.50;;
71753;SDS011;59593;51.716;7.016;2023-02-01T00:53:33;20.77;;;4.90;;
71753;SDS011;59593;51.716;7.016;2023-02-01T00:55:58;23.33;;;5.20;;
71753;SDS011;59593;51.716;7.016;2023-02-01T00:58:24;21.87;;;4.43;;
71753;SDS011;59593;51.716;7.016;2023-02-01T01:01:04;17.87;;;4.40;;
71753;SDS011;59593;51.716;7.016;2023-02-01T01:03:31;17.57;;;4.60;;
71753;SDS011;59593;51.716;7.016;2023-02-01T01:05:58;19.67;;;4.30;;
71753;SDS011;59593;51.716;7.016;2023-02-01T01:08:25;15.63;;;4.00;;
71753;SDS011;59593;51.716;7.016;2023-02-01T01:10:52;17.20;;;3.70;;
71753;SDS011;59593;51.716;7.016;2023-02-01T01:13:18;17.63;;;4.17;;
71753;SDS011;59593;51.716;7.016;2023-02-01T01:15:43;22.43;;;4.00;;
71753;SDS011;59593;51.716;7.016;2023-02-01T01:18:10;15.47;;;4.50;;
71753;SDS011;59593;51.716;7.016;2023-02-01T01:20:36;18.67;;;4.20;;
71753;SDS011;59593;51.716;7.016;2023-02-01T01:23:05;18.63;;;3.80;;
71753;SDS011;59593;51.716;7.016;2023-02-01T01:25:31;15.60;;;3.87;;
71753;SDS011;59593;51.716;7.016;2023-02-01T01:27:57;16.37;;;3.87;;
71753;SDS011;59593;51.716;7.016;2023-02-01T01:30:23;19.60;;;4.10;;
71753;SDS011;59593;51.716;7.016;2023-02-01T01:32:49;14.70;;;3.60;;
71753;SDS011;59593;51.716;7.016;2023-02-01T01:35:16;17.60;;;3.80;;
71753;SDS011;59593;51.716;7.016;2023-02-01T01:37:42;18.63;;;3.90;;
71753;SDS011;59593;51.716;7.016;2023-02-01T01:40:09;17.17;;;3.30;;
71753;SDS011;59593;51.716;7.016;2023-02-01T01:42:38;25.90;;;4.93;;
71753;SDS011;59593;51.716;7.016;2023-02-01T01:47:50;18.67;;;4.37;;
71753;SDS011;59593;51.716;7.016;2023-02-01T01:50:21;11.53;;;3.37;;
71753;SDS011;59593;51.716;7.016;2023-02-01T01:52:53;21.60;;;4.50;;
71753;SDS011;59593;51.716;7.016;2023-02-01T01:55:21;20.37;;;3.57;;
71753;SDS011;59593;51.716;7.016;2023-02-01T01:57:53;16.43;;;3.70;;
71753;SDS011;59593;51.716;7.016;2023-02-01T02:00:23;17.87;;;3.57;;
71753;SDS011;59593;51.716;7.016;2023-02-01T02:02:52;17.87;;;4.33;;
71753;SDS011;59593;51.716;7.016;2023-02-01T02:05:22;18.63;;;4.03;;
71753;SDS011;59593;51.716;7.016;2023-02-01T02:10:18;18.80;;;3.70;;
71753;SDS011;59593;51.716;7.016;2023-02-01T02:12:45;14.90;;;4.23;;
71753;SDS011;59593;51.716;7.016;2023-02-01T02:15:14;18.07;;;3.50;;
71753;SDS011;59593;51.716;7.016;2023-02-01T02:29:09;19.77;;;3.70;;
71753;SDS011;59593;51.716;7.016;2023-02-01T02:34:40;19.93;;;4.43;;
71753;SDS011;59593;51.716;7.016;2023-02-01T02:37:21;14.50;;;3.50;;
71753;SDS011;59593;51.716;7.016;2023-02-01T02:45:49;16.23;;;3.87;;
71753;SDS011;59593;51.716;7.016;2023-02-01T02:48:43;14.77;;;3.73;;
71753;SDS011;59593;51.716;7.016;2023-02-01T02:51:28;14.53;;;3.70;;
71753;SDS011;59593;51.716;7.016;2023-02-01T02:54:33;17.57;;;3.87;;
71753;SDS011;59593;51.716;7.016;2023-02-01T02:57:22;13.00;;;3.27;;
71753;SDS011;59593;51.716;7.016;2023-02-01T03:00:14;14.93;;;3.60;;
71753;SDS011;59593;51.716;7.016;2023-02-01T03:03:04;16.57;;;4.10;;
71753;SDS011;59593;51.716;7.016;2023-02-01T03:05:49;17.50;;;3.83;;
71753;SDS011;59593;51.716;7.016;2023-02-01T03:08:16;17.73;;;3.83;;
71753;SDS011;59593;51.716;7.016;2023-02-01T03:10:51;16.87;;;3.40;;
71753;SDS011;59593;51.716;7.016;2023-02-01T03:18:20;13.87;;;3.63;;
71753;SDS011;59593;51.716;7.016;2023-02-01T03:20:50;22.23;;;3.53;;
71753;SDS011;59593;51.716;7.016;2023-02-01T03:23:19;19.30;;;3.70;;
71753;SDS011;59593;51.716;7.016;2023-02-01T03:25:48;18.40;;;4.33;;
71753;SDS011;59593;51.716;7.016;2023-02-01T03:28:17;18.07;;;3.73;;
71753;SDS011;59593;51.716;7.016;2023-02-01T03:30:46;21.10;;;3.93;;
71753;SDS011;59593;51.716;7.016;2023-02-01T03:33:18;24.63;;;4.27;;
71753;SDS011;59593;51.716;7.016;2023-02-01T03:41:17;15.40;;;3.10;;
71753;SDS011;59593;51.716;7.016;2023-02-01T03:43:55;16.00;;;3.90;;
71753;SDS011;59593;51.716;7.016;2023-02-01T03:46:46;19.07;;;3.47;;
71753;SDS011;59593;51.716;7.016;2023-02-01T03:49:27;18.00;;;3.60;;
71753;SDS011;59593;51.716;7.016;2023-02-01T03:51:58;16.90;;;3.70;;
71753;SDS011;59593;51.716;7.016;2023-02-01T03:54:25;17.37;;;3.50;;
71753;SDS011;59593;51.716;7.016;2023-02-01T03:56:53;15.23;;;3.20;;
71753;SDS011;59593;51.716;7.016;2023-02-01T03:59:22;22.23;;;4.27;;
71753;SDS011;59593;51.716;7.016;2023-02-01T04:01:49;15.77;;;3.63;;
71753;SDS011;59593;51.716;7.016;2023-02-01T04:04:14;15.63;;;3.43;;
71753;SDS011;59593;51.716;7.016;2023-02-01T04:06:48;21.43;;;4.13;;
71753;SDS011;59593;51.716;7.016;2023-02-01T04:09:15;16.43;;;3.70;;
71753;SDS011;59593;51.716;7.016;2023-02-01T04:11:41;14.97;;;4.00;;
71753;SDS011;59593;51.716;7.016;2023-02-01T04:14:07;17.60;;;4.57;;
71753;SDS011;59593;51.716;7.016;2023-02-01T04:16:33;20.23;;;4.33;;
71753;SDS011;59593;51.716;7.016;2023-02-01T04:19:00;18.80;;;4.20;;
71753;SDS011;59593;51.716;7.016;2023-02-01T04:21:26;23.77;;;4.53;;
71753;SDS011;59593;51.716;7.016;2023-02-01T04:23:52;20.97;;;4.03;;
71753;SDS011;59593;51.716;7.016;2023-02-01T04:26:18;20.40;;;3.80;;
71753;SDS011;59593;51.716;7.016;2023-02-01T04:28:45;12.20;;;3.40;;
71753;SDS011;59593;51.716;7.016;2023-02-01T04:31:15;17.67;;;3.77;;
71753;SDS011;59593;51.716;7.016;2023-02-01T04:33:42;17.87;;;4.07;;
71753;SDS011;59593;51.716;7.016;2023-02-01T04:36:07;19.70;;;3.90;;
71753;SDS011;59593;51.716;7.016;2023-02-01T04:38:33;19.47;;;4.17;;
71753;SDS011;59593;51.716;7.016;2023-02-01T04:40:59;14.77;;;3.87;;
71753;SDS011;59593;51.716;7.016;2023-02-01T04:43:27;20.77;;;4.20;;
71753;SDS011;59593;51.716;7.016;2023-02-01T04:45:53;20.80;;;3.97;;
71753;SDS011;59593;51.716;7.016;2023-02-01T04:48:19;19.40;;;4.27;;
71753;SDS011;59593;51.716;7.016;2023-02-01T04:50:45;17.53;;;3.50;;
71753;SDS011;59593;51.716;7.016;2023-02-01T04:53:16;21.43;;;5.07;;
71753;SDS011;59593;51.716;7.016;2023-02-01T04:55:43;19.80;;;3.73;;
71753;SDS011;59593;51.716;7.016;2023-02-01T04:58:09;21.23;;;4.63;;
71753;SDS011;59593;51.716;7.016;2023-02-01T05:00:35;19.60;;;3.37;;
71753;SDS011;59593;51.716;7.016;2023-02-01T05:03:02;16.40;;;3.63;;
71753;SDS011;59593;51.716;7.016;2023-02-01T05:05:28;20.30;;;3.50;;
71753;SDS011;59593;51.716;7.016;2023-02-01T05:07:54;17.17;;;3.80;;
71753;SDS011;59593;51.716;7.016;2023-02-01T05:10:20;21.40;;;4.03;;
71753;SDS011;59593;51.716;7.016;2023-02-01T05:12:47;23.90;;;4.00;;
71753;SDS011;59593;51.716;7.016;2023-02-01T05:15:38;24.03;;;3.80;;
71753;SDS011;59593;51.716;7.016;2023-02-01T05:18:04;19.83;;;4.00;;
71753;SDS011;59593;51.716;7.016;2023-02-01T05:20:30;17.33;;;3.33;;
71753;SDS011;59593;51.716;7.016;2023-02-01T05:22:55;17.27;;;3.40;;
71753;SDS011;59593;51.716;7.016;2023-02-01T05:25:21;21.73;;;4.03;;
71753;SDS011;59593;51.716;7.016;2023-02-01T05:27:50;29.80;;;4.30;;
71753;SDS011;59593;51.716;7.016;2023-02-01T05:30:16;19.23;;;3.90;;
71753;SDS011;59593;51.716;7.016;2023-02-01T05:32:41;19.90;;;3.93;;
71753;SDS011;59593;51.716;7.016;2023-02-01T05:35:07;23.10;;;4.00;;
71753;SDS011;59593;51.716;7.016;2023-02-01T05:37:33;21.07;;;3.73;;
71753;SDS011;59593;51.716;7.016;2023-02-01T05:39:59;15.33;;;3.93;;
71753;SDS011;59593;51.716;7.016;2023-02-01T05:42:34;22.03;;;3.80;;
71753;SDS011;59593;51.716;7.016;2023-02-01T05:45:13;21.53;;;4.03;;
71753;SDS011;59593;51.716;7.016;2023-02-01T05:47:41;24.57;;;4.70;;
71753;SDS011;59593;51.716;7.016;2023-02-01T05:50:07;19.47;;;4.30;;
71753;SDS011;59593;51.716;7.016;2023-02-01T05:52:33;19.93;;;4.03;;
71753;SDS011;59593;51.716;7.016;2023-02-01T05:54:58;19.27;;;4.07;;
71753;SDS011;59593;51.716;7.016;2023-02-01T05:57:24;15.43;;;3.60;;
71753;SDS011;59593;51.716;7.016;2023-02-01T05:59:50;20.03;;;3.70;;
71753;SDS011;59593;51.716;7.016;2023-02-01T06:02:15;17.60;;;3.80;;
71753;SDS011;59593;51.716;7.016;2023-02-01T06:04:41;24.90;;;4.53;;
71753;SDS011;59593;51.716;7.016;2023-02-01T06:07:07;20.93;;;4.00;;
71753;SDS011;59593;51.716;7.016;2023-02-01T06:09:35;23.17;;;3.97;;
71753;SDS011;59593;51.716;7.016;2023-02-01T06:12:01;23.33;;;4.63;;
71753;SDS011;59593;51.716;7.016;2023-02-01T06:14:27;18.77;;;4.00;;
71753;SDS011;59593;51.716;7.016;2023-02-01T06:16:56;18.57;;;3.83;;
71753;SDS011;59593;51.716;7.016;2023-02-01T06:19:22;23.60;;;3.67;;
71753;SDS011;59593;51.716;7.016;2023-02-01T06:21:48;20.73;;;4.53;;
71753;SDS011;59593;51.716;7.016;2023-02-01T06:24:17;21.83;;;4.30;;
71753;SDS011;59593;51.716;7.016;2023-02-01T06:26:43;21.63;;;4.17;;
71753;SDS011;59593;51.716;7.016;2023-02-01T06:29:11;18.67;;;4.10;;
71753;SDS011;59593;51.716;7.016;2023-02-01T06:31:38;19.77;;;4.67;;
71753;SDS011;59593;51.716;7.016;2023-02-01T06:34:07;18.10;;;3.20;;
71753;SDS011;59593;51.716;7.016;2023-02-01T06:36:33;22.13;;;5.60;;
71753;SDS011;59593;51.716;7.016;2023-02-01T06:38:59;21.67;;;4.33;;
71753;SDS011;59593;51.716;7.016;2023-02-01T06:41:27;21.40;;;5.63;;
71753;SDS011;59593;51.716;7.016;2023-02-01T06:43:53;20.93;;;4.00;;
71753;SDS011;59593;51.716;7.016;2023-02-01T06:46:18;22.50;;;4.33;;
71753;SDS011;59593;51.716;7.016;2023-02-01T06:48:44;18.90;;;4.27;;
71753;SDS011;59593;51.716;7.016;2023-02-01T06:51:26;23.97;;;4.93;;
71753;SDS011;59593;51.716;7.016;2023-02-01T06:53:55;19.70;;;4.30;;
71753;SDS011;59593;51.716;7.016;2023-02-01T06:56:22;20.30;;;4.23;;
71753;SDS011;59593;51.716;7.016;2023-02-01T06:58:47;20.57;;;4.43;;
71753;SDS011;59593;51.716;7.016;2023-02-01T07:01:14;24.63;;;4.40;;
71753;SDS011;59593;51.716;7.016;2023-02-01T07:03:40;22.27;;;4.30;;
71753;SDS011;59593;51.716;7.016;2023-02-01T07:06:06;19.97;;;4.30;;
71753;SDS011;59593;51.716;7.016;2023-02-01T07:08:33;24.13;;;5.40;;
71753;SDS011;59593;51.716;7.016;2023-02-01T07:11:05;20.33;;;4.80;;
71753;SDS011;59593;51.716;7.016;2023-02-01T07:13:33;20.83;;;4.30;;
71753;SDS011;59593;51.716;7.016;2023-02-01T07:15:59;19.83;;;4.97;;
71753;SDS011;59593;51.716;7.016;2023-02-01T07:18:30;18.73;;;4.17;;
71753;SDS011;59593;51.716;7.016;2023-02-01T07:20:56;20.03;;;4.70;;
71753;SDS011;59593;51.716;7.016;2023-02-01T07:23:22;22.30;;;4.30;;
71753;SDS011;59593;51.716;7.016;2023-02-01T07:25:48;25.80;;;4.93;;
71753;SDS011;59593;51.716;7.016;2023-02-01T07:28:17;26.10;;;4.77;;
71753;SDS011;59593;51.716;7.016;2023-02-01T07:30:43;29.50;;;5.07;;
71753;SDS011;59593;51.716;7.016;2023-02-01T07:33:08;23.93;;;5.07;;
71753;SDS011;59593;51.716;7.016;2023-02-01T07:35:34;31.17;;;5.20;;
71753;SDS011;59593;51.716;7.016;2023-02-01T07:38:02;20.63;;;4.37;;
71753;SDS011;59593;51.716;7.016;2023-02-01T07:40:28;26.17;;;4.60;;
71753;SDS011;59593;51.716;7.016;2023-02-01T07:42:55;19.87;;;4.57;;
71753;SDS011;59593;51.716;7.016;2023-02-01T07:45:21;26.50;;;5.30;;
71753;SDS011;59593;51.716;7.016;2023-02-01T07:47:47;19.90;;;4.03;;
71753;SDS011;59593;51.716;7.016;2023-02-01T07:50:14;25.60;;;5.03;;
71753;SDS011;59593;51.716;7.016;2023-02-01T07:52:43;25.57;;;4.60;;
71753;SDS011;59593;51.716;7.016;2023-02-01T07:55:09;23.73;;;4.13;;
71753;SDS011;59593;51.716;7.016;2023-02-01T07:57:34;21.17;;;4.23;;
71753;SDS011;59593;51.716;7.016;2023-02-01T08:00:00;23.93;;;4.97;;
71753;SDS011;59593;51.716;7.016;2023-02-01T08:02:45;23.27;;;4.27;;
71753;SDS011;59593;51.716;7.016;2023-02-01T08:05:10;20.53;;;3.80;;
71753;SDS011;59593;51.716;7.016;2023-02-01T08:07:36;16.67;;;4.37;;
71753;SDS011;59593;51.716;7.016;2023-02-01T08:10:05;16.77;;;3.83;;
71753;SDS011;59593;51.716;7.016;2023-02-01T08:12:35;21.77;;;3.87;;
71753;SDS011;59593;51.716;7.016;2023-02-01T08:15:04;24.70;;;4.60;;
71753;SDS011;59593;51.716;7.016;2023-02-01T08:17:30;19.10;;;4.27;;
71753;SDS011;59593;51.716;7.016;2023-02-01T08:19:55;21.53;;;4.93;;
71753;SDS011;59593;51.716;7.016;2023-02-01T08:22:21;19.83;;;3.83;;
71753;SDS011;59593;51.716;7.016;2023-02-01T08:24:50;20.80;;;3.77;;
71753;SDS011;59593;51.716;7.016;2023-02-01T08:27:16;18.07;;;4.37;;
71753;SDS011;59593;51.716;7.016;2023-02-01T08:29:42;16.97;;;4.40;;
71753;SDS011;59593;51.716;7.016;2023-02-01T08:32:11;19.40;;;4.30;;
71753;SDS011;59593;51.716;7.016;2023-02-01T08:34:43;17.40;;;4.43;;
71753;SDS011;59593;51.716;7.016;2023-02-01T08:37:12;19.07;;;4.53;;
71753;SDS011;59593;51.716;7.016;2023-02-01T08:39:42;24.33;;;5.73;;
71753;SDS011;59593;51.716;7.016;2023-02-01T08:42:12;20.57;;;4.60;;
71753;SDS011;59593;51.716;7.016;2023-02-01T08:44:56;20.80;;;4.57;;
71753;SDS011;59593;51.716;7.016;2023-02-01T08:47:30;22.67;;;4.33;;
71753;SDS011;59593;51.716;7.016;2023-02-01T08:49:59;21.37;;;4.60;;
71753;SDS011;59593;51.716;7.016;2023-02-01T08:52:27;21.40;;;4.57;;
71753;SDS011;59593;51.716;7.016;2023-02-01T08:54:53;19.00;;;4.63;;
71753;SDS011;59593;51.716;7.016;2023-02-01T08:57:19;19.80;;;5.40;;
71753;SDS011;59593;51.716;7.016;2023-02-01T08:59:50;25.00;;;4.73;;
71753;SDS011;59593;51.716;7.016;2023-02-01T09:02:16;28.70;;;4.73;;
71753;SDS011;59593;51.716;7.016;2023-02-01T09:04:42;21.07;;;5.03;;
71753;SDS011;59593;51.716;7.016;2023-02-01T09:07:09;22.47;;;5.10;;
71753;SDS011;59593;51.716;7.016;2023-02-01T09:09:35;19.53;;;4.50;;
71753;SDS011;59593;51.716;7.016;2023-02-01T09:12:02;24.73;;;4.57;;
71753;SDS011;59593;51.716;7.016;2023-02-01T09:14:28;24.43;;;5.93;;
71753;SDS011;59593;51.716;7.016;2023-02-01T09:16:53;20.33;;;5.33;;
71753;SDS011;59593;51.716;7.016;2023-02-01T09:19:19;20.77;;;4.70;;
71753;SDS011;59593;51.716;7.016;2023-02-01T09:21:45;20.93;;;4.53;;
71753;SDS011;59593;51.716;7.016;2023-02-01T09:24:10;18.07;;;4.80;;
71753;SDS011;59593;51.716;7.016;2023-02-01T09:26:36;19.67;;;5.23;;
71753;SDS011;59593;51.716;7.016;2023-02-01T09:29:03;20.63;;;4.47;;
71753;SDS011;59593;51.716;7.016;2023-02-01T09:31:34;24.60;;;4.93;;
71753;SDS011;59593;51.716;7.016;2023-02-01T09:34:04;24.33;;;5.10;;
71753;SDS011;59593;51.716;7.016;2023-02-01T09:36:30;24.00;;;5.10;;
71753;SDS011;59593;51.716;7.016;2023-02-01T09:38:55;21.37;;;4.80;;
71753;SDS011;59593;51.716;7.016;2023-02-01T09:41:26;22.57;;;5.20;;
71753;SDS011;59593;51.716;7.016;2023-02-01T09:44:08;16.40;;;4.57;;
71753;SDS011;59593;51.716;7.016;2023-02-01T09:46:47;19.43;;;4.43;;
71753;SDS011;59593;51.716;7.016;2023-02-01T09:49:14;19.87;;;4.70;;
71753;SDS011;59593;51.716;7.016;2023-02-01T09:51:48;22.50;;;4.57;;
71753;SDS011;59593;51.716;7.016;2023-02-01T09:54:20;20.63;;;4.80;;
71753;SDS011;59593;51.716;7.016;2023-02-01T09:56:49;19.83;;;4.83;;
71753;SDS011;59593;51.716;7.016;2023-02-01T09:59:44;22.20;;;5.03;;
71753;SDS011;59593;51.716;7.016;2023-02-01T10:02:21;21.90;;;4.80;;
71753;SDS011;59593;51.716;7.016;2023-02-01T10:04:49;19.20;;;5.27;;
71753;SDS011;59593;51.716;7.016;2023-02-01T10:07:21;25.03;;;5.40;;
71753;SDS011;59593;51.716;7.016;2023-02-01T10:13:16;14.83;;;4.43;;
71753;SDS011;59593;51.716;7.016;2023-02-01T10:16:05;23.20;;;5.37;;
71753;SDS011;59593;51.716;7.016;2023-02-01T10:18:45;28.33;;;5.83;;
71753;SDS011;59593;51.716;7.016;2023-02-01T10:21:36;24.83;;;5.80;;
71753;SDS011;59593;51.716;7.016;2023-02-01T10:24:20;18.07;;;4.97;;
71753;SDS011;59593;51.716;7.016;2023-02-01T10:26:55;20.50;;;5.17;;
71753;SDS011;59593;51.716;7.016;2023-02-01T10:29:26;25.47;;;5.60;;
71753;SDS011;59593;51.716;7.016;2023-02-01T10:32:01;22.23;;;5.30;;
71753;SDS011;59593;51.716;7.016;2023-02-01T10:34:29;24.20;;;6.00;;
71753;SDS011;59593;51.716;7.016;2023-02-01T10:39:43;26.60;;;6.47;;
71753;SDS011;59593;51.716;7.016;2023-02-01T10:42:11;20.63;;;5.57;;
71753;SDS011;59593;51.716;7.016;2023-02-01T10:44:37;21.17;;;4.57;;
71753;SDS011;59593;51.716;7.016;2023-02-01T10:47:09;24.13;;;5.47;;
71753;SDS011;59593;51.716;7.016;2023-02-01T10:49:41;20.00;;;4.97;;
71753;SDS011;59593;51.716;7.016;2023-02-01T10:52:29;23.57;;;4.83;;
71753;SDS011;59593;51.716;7.016;2023-02-01T10:55:25;20.13;;;4.77;;
71753;SDS011;59593;51.716;7.016;2023-02-01T10:57:57;24.87;;;5.00;;
71753;SDS011;59593;51.716;7.016;2023-02-01T11:00:25;20.07;;;4.77;;
71753;SDS011;59593;51.716;7.016;2023-02-01T11:02:52;21.33;;;5.40;;
71753;SDS011;59593;51.716;7.016;2023-02-01T11:05:18;20.83;;;5.30;;
71753;SDS011;59593;51.716;7.016;2023-02-01T11:07:51;21.43;;;5.13;;
71753;SDS011;59593;51.716;7.016;2023-02-01T11:10:35;19.77;;;4.63;;
71753;SDS011;59593;51.716;7.016;2023-02-01T11:13:08;20.30;;;4.73;;
71753;SDS011;59593;51.716;7.016;2023-02-01T11:15:44;26.03;;;4.70;;
71753;SDS011;59593;51.716;7.016;2023-02-01T11:18:16;21.40;;;4.87;;
71753;SDS011;59593;51.716;7.016;2023-02-01T11:20:44;15.73;;;4.57;;
71753;SDS011;59593;51.716;7.016;2023-02-01T11:23:24;29.47;;;5.00;;
71753;SDS011;59593;51.716;7.016;2023-02-01T11:25:55;20.37;;;4.40;;
71753;SDS011;59593;51.716;7.016;2023-02-01T11:28:23;19.27;;;3.87;;
71753;SDS011;59593;51.716;7.016;2023-02-01T11:30:55;19.60;;;4.60;;
71753;SDS011;59593;51.716;7.016;2023-02-01T11:33:33;17.70;;;4.20;;
71753;SDS011;59593;51.716;7.016;2023-02-01T11:36:09;18.80;;;6.00;;
71753;SDS011;59593;51.716;7.016;2023-02-01T11:38:46;18.93;;;4.30;;
71753;SDS011;59593;51.716;7.016;2023-02-01T11:41:24;16.33;;;3.97;;
71753;SDS011;59593;51.716;7.016;2023-02-01T11:43:56;17.13;;;3.80;;
71753;SDS011;59593;51.716;7.016;2023-02-01T11:46:24;20.07;;;3.93;;
71753;SDS011;59593;51.716;7.016;2023-02-01T11:49:13;13.33;;;3.57;;
71753;SDS011;59593;51.716;7.016;2023-02-01T11:54:32;14.77;;;4.10;;
71753;SDS011;59593;51.716;7.016;2023-02-01T11:57:04;17.20;;;4.40;;
71753;SDS011;59593;51.716;7.016;2023-02-01T12:13:33;20.43;;;4.70;;
71753;SDS011;59593;51.716;7.016;2023-02-01T12:38:01;14.37;;;3.50;;
71753;SDS011;59593;51.716;7.016;2023-02-01T12:40:53;14.10;;;3.43;;
71753;SDS011;59593;51.716;7.016;2023-02-01T12:46:46;15.90;;;3.20;;
71753;SDS011;59593;51.716;7.016;2023-02-01T12:52:07;16.20;;;3.93;;
71753;SDS011;59593;51.716;7.016;2023-02-01T12:54:49;20.17;;;4.03;;
71753;SDS011;59593;51.716;7.016;2023-02-01T12:57:28;14.50;;;3.60;;
71753;SDS011;59593;51.716;7.016;2023-02-01T13:02:59;14.40;;;3.50;;
71753;SDS011;59593;51.716;7.016;2023-02-01T13:05:54;12.97;;;3.10;;
71753;SDS011;59593;51.716;7.016;2023-02-01T13:08:26;16.37;;;3.77;;
71753;SDS011;59593;51.716;7.016;2023-02-01T13:11:16;16.57;;;3.63;;
71753;SDS011;59593;51.716;7.016;2023-02-01T13:16:59;15.07;;;3.63;;
71753;SDS011;59593;51.716;7.016;2023-02-01T13:19:52;16.30;;;3.33;;
71753;SDS011;59593;51.716;7.016;2023-02-01T13:22:30;18.00;;;3.83;;
71753;SDS011;59593;51.716;7.016;2023-02-01T13:25:04;15.10;;;3.80;;
71753;SDS011;59593;51.716;7.016;2023-02-01T13:27:35;22.20;;;4.27;;
71753;SDS011;59593;51.716;7.016;2023-02-01T13:33:02;14.27;;;3.23;;
71753;SDS011;59593;51.716;7.016;2023-02-01T13:44:50;17.63;;;3.47;;
71753;SDS011;59593;51.716;7.016;2023-02-01T13:47:48;13.03;;;3.30;;
71753;SDS011;59593;51.716;7.016;2023-02-01T13:55:41;19.20;;;3.70;;
71753;SDS011;59593;51.716;7.016;2023-02-01T13:58:15;16.20;;;3.73;;
71753;SDS011;59593;51.716;7.016;2023-02-01T14:00:44;16.70;;;3.67;;
71753;SDS011;59593;51.716;7.016;2023-02-01T14:03:20;14.80;;;3.43;;
71753;SDS011;59593;51.716;7.016;2023-02-01T14:11:54;19.53;;;4.13;;
71753;SDS011;59593;51.716;7.016;2023-02-01T14:14:45;16.07;;;3.33;;
71753;SDS011;59593;51.716;7.016;2023-02-01T14:19:25;16.27;;;3.43;;
71753;SDS011;59593;51.716;7.016;2023-02-01T14:21:56;16.67;;;3.57;;
71753;SDS011;59593;51.716;7.016;2023-02-01T14:27:37;18.20;;;4.77;;
71753;SDS011;59593;51.716;7.016;2023-02-01T14:29:38;12.67;;;3.57;;
71753;SDS011;59593;51.716;7.016;2023-02-01T14:44:49;17.47;;;4.10;;
71753;SDS011;59593;51.716;7.016;2023-02-01T14:52:52;18.93;;;4.50;;
71753;SDS011;59593;51.716;7.016;2023-02-01T14:55:30;18.50;;;4.37;;
71753;SDS011;59593;51.716;7.016;2023-02-01T15:01:00;20.93;;;4.10;;
71753;SDS011;59593;51.716;7.016;2023-02-01T15:06:20;15.43;;;3.37;;
71753;SDS011;59593;51.716;7.016;2023-02-01T15:08:49;16.93;;;3.37;;
71753;SDS011;59593;51.716;7.016;2023-02-01T15:11:20;22.27;;;4.00;;
71753;SDS011;59593;51.716;7.016;2023-02-01T15:13:49;18.47;;;3.67;;
71753;SDS011;59593;51.716;7.016;2023-02-01T15:16:18;18.57;;;4.17;;
71753;SDS011;59593;51.716;7.016;2023-02-01T15:18:47;18.73;;;3.87;;
71753;SDS011;59593;51.716;7.016;2023-02-01T15:21:20;18.73;;;4.40;;
71753;SDS011;59593;51.716;7.016;2023-02-01T15:23:47;21.67;;;3.90;;
71753;SDS011;59593;51.716;7.016;2023-02-01T15:26:28;19.13;;;4.07;;
71753;SDS011;59593;51.716;7.016;2023-02-01T15:28:58;18.17;;;3.60;;
71753;SDS011;59593;51.716;7.016;2023-02-01T15:31:35;18.97;;;3.80;;
71753;SDS011;59593;51.716;7.016;2023-02-01T15:34:06;14.93;;;3.90;;
71753;SDS011;59593;51.716;7.016;2023-02-01T15:36:32;19.73;;;3.73;;
71753;SDS011;59593;51.716;7.016;2023-02-01T15:42:09;15.10;;;3.37;;
71753;SDS011;59593;51.716;7.016;2023-02-01T15:44:40;26.63;;;4.10;;
71753;SDS011;59593;51.716;7.016;2023-02-01T15:47:23;16.63;;;4.03;;
71753;SDS011;59593;51.716;7.016;2023-02-01T15:49:51;19.70;;;4.10;;
71753;SDS011;59593;51.716;7.016;2023-02-01T15:55:50;17.27;;;3.90;;
71753;SDS011;59593;51.716;7.016;2023-02-01T15:57:57;22.03;;;3.73;;
71753;SDS011;59593;51.716;7.016;2023-02-01T16:00:24;21.57;;;4.00;;
71753;SDS011;59593;51.716;7.016;2023-02-01T16:03:05;21.07;;;3.83;;
71753;SDS011;59593;51.716;7.016;2023-02-01T16:05:53;17.97;;;4.10;;
71753;SDS011;59593;51.716;7.016;2023-02-01T16:08:25;16.57;;;4.00;;
71753;SDS011;59593;51.716;7.016;2023-02-01T16:10:53;20.57;;;3.90;;
71753;SDS011;59593;51.716;7.016;2023-02-01T16:13:26;20.00;;;4.00;;
71753;SDS011;59593;51.716;7.016;2023-02-01T16:15:52;19.43;;;4.00;;
71753;SDS011;59593;51.716;7.016;2023-02-01T16:18:24;18.90;;;3.73;;
71753;SDS011;59593;51.716;7.016;2023-02-01T16:20:52;15.33;;;4.43;;
71753;SDS011;59593;51.716;7.016;2023-02-01T16:23:20;17.90;;;4.30;;
71753;SDS011;59593;51.716;7.016;2023-02-01T16:25:46;18.67;;;3.90;;
71753;SDS011;59593;51.716;7.016;2023-02-01T16:28:12;28.03;;;5.43;;
71753;SDS011;59593;51.716;7.016;2023-02-01T16:33:29;18.97;;;5.10;;
71753;SDS011;59593;51.716;7.016;2023-02-01T16:36:04;8.80;;;2.00;;
71753;SDS011;59593;51.716;7.016;2023-02-01T16:38:30;5.53;;;1.77;;
71753;SDS011;59593;51.716;7.016;2023-02-01T16:41:13;6.43;;;1.60;;
71753;SDS011;59593;51.716;7.016;2023-02-01T16:43:39;5.17;;;1.73;;
71753;SDS011;59593;51.716;7.016;2023-02-01T16:46:05;6.10;;;1.20;;
71753;SDS011;59593;51.716;7.016;2023-02-01T16:48:44;5.20;;;1.50;;
71753;SDS011;59593;51.716;7.016;2023-02-01T16:51:14;3.53;;;1.47;;
71753;SDS011;59593;51.716;7.016;2023-02-01T16:53:50;5.23;;;1.47;;
71753;SDS011;59593;51.716;7.016;2023-02-01T16:56:23;4.77;;;1.43;;
71753;SDS011;59593;51.716;7.016;2023-02-01T16:58:54;4.23;;;1.03;;
71753;SDS011;59593;51.716;7.016;2023-02-01T17:01:20;7.87;;;2.00;;
71753;SDS011;59593;51.716;7.016;2023-02-01T17:03:46;7.40;;;1.93;;
71753;SDS011;59593;51.716;7.016;2023-02-01T17:06:19;4.97;;;1.60;;
71753;SDS011;59593;51.716;7.016;2023-02-01T17:08:50;6.20;;;2.00;;
71753;SDS011;59593;51.716;7.016;2023-02-01T17:11:18;6.47;;;1.97;;
71753;SDS011;59593;51.716;7.016;2023-02-01T17:13:44;4.77;;;1.53;;
71753;SDS011;59593;51.716;7.016;2023-02-01T17:18:56;7.30;;;1.90;;
71753;SDS011;59593;51.716;7.016;2023-02-01T17:21:40;6.73;;;2.07;;
71753;SDS011;59593;51.716;7.016;2023-02-01T17:24:12;8.70;;;2.50;;
71753;SDS011;59593;51.716;7.016;2023-02-01T17:26:39;7.20;;;2.13;;
71753;SDS011;59593;51.716;7.016;2023-02-01T17:29:05;7.13;;;2.23;;
71753;SDS011;59593;51.716;7.016;2023-02-01T17:31:31;8.30;;;2.87;;
71753;SDS011;59593;51.716;7.016;2023-02-01T17:34:00;9.57;;;2.70;;